• Join FlightAware (Why Join?)
  • Login
  • US Flag 
01:17AM EDT


 

Airport Tracker/Info


-or-


 

Live Flight TrackerFlight Track Log ✈ SWA3561 ✈ 06-May-2014 ✈ KLAS - KSNA

Flight Track Log - Related Links

Times and Time Zones

All times are in EDT time to prevent confusion due to time zone crossing. See the SWA3561 flight status page for this flight to view local times or setup timezone preferences in your user account.

Time Position Orientation Groundspeed Altitude Reporting Facility
EDT Latitude Longitude Course Direction KTS MPH feet Rate Location/Type
12:39AM 36.1114 -115.2097 283° West 211 243 5,900  Level Los Angeles Center
12:39AM 36.1094 -115.2422 266° West 242 278 7,700 4,500 Climbing Los Angeles Center
12:40AM 36.0981 -115.2886 253° West 245 282 10,500 3,600 Climbing Los Angeles Center
12:41AM 36.0164 -115.3319 203° Southwest 317 365 13,800 3,240 Climbing Los Angeles Center
12:42AM 35.9253 -115.3753 201° Southwest 355 409 17,200 3,300 Climbing Los Angeles Center
12:43AM 35.8203 -115.3494 169° South 393 452 20,600 2,820 Climbing Los Angeles Center
12:44AM 35.7131 -115.3086 163° South 417 480 23,000 1,800 Climbing Los Angeles Center
12:45AM 35.6158 -115.3786 210° Southwest 416 479 24,400 2,340 Climbing Los Angeles Center
12:46AM 35.5394 -115.4825 228° Southwest 412 474 27,800 2,640 Climbing Los Angeles Center
12:47AM 35.4694 -115.5753 227° Southwest 375 432 29,800 1,080 Climbing Los Angeles Center
12:48AM 35.3933 -115.6775 228° Southwest 359 413 30,000 60 Climbing Los Angeles Center
12:49AM 35.3244 -115.7711 228° Southwest 366 421 30,000  Level Los Angeles Center
12:50AM 35.2553 -115.8633 227° Southwest 369 425 30,000  Level Los Angeles Center
12:51AM 35.1850 -115.9547 227° Southwest 368 423 30,000  Level Los Angeles Center
12:52AM 35.1150 -116.0461 227° Southwest 368 423 30,000  Level Los Angeles Center
12:53AM 35.0447 -116.1403 228° Southwest 371 427 30,000  Level Los Angeles Center
12:54AM 34.9731 -116.2311 226° Southwest 372 428 30,100  Climbing Los Angeles Center
12:55AM 34.8969 -116.3317 227° Southwest 402 463 30,000 -60 Descending Los Angeles Center
12:56AM 34.8189 -116.4339 227° Southwest 407 468 30,000 -480 Level Los Angeles Center
12:57AM 34.7392 -116.5344 226° Southwest 411 473 29,100 -1,680 Descending Los Angeles Center
12:58AM 34.6608 -116.6300 225° Southwest 402 463 26,600 -2,700 Descending Los Angeles Center
12:59AM 34.5750 -116.7353 225° Southwest 431 496 23,700 -3,000 Descending Los Angeles Center
01:00AM 34.4828 -116.8464 225° Southwest 457 526 20,600 -3,000 Descending Los Angeles Center
01:01AM 34.3978 -116.9506 225° Southwest 441 507 17,600 -3,240 Descending Los Angeles Center
01:02AM 34.3033 -117.0647 225° Southwest 407 468 14,100 -2,580 Descending Los Angeles Center
01:03AM 34.2214 -117.1428 218° Southwest 381 438 12,400 -1,380 Descending Los Angeles Center
01:04AM 34.1394 -117.2089 214° Southwest 360 414 11,300 -1,080 Descending Los Angeles Center
01:05AM 34.0833 -117.2500 211° Southwest 346 398 10,700 -900 Descending Southern California TRACON
01:06AM 34.0167 -117.3167 220° Southwest 312 359 9,900 -900 Descending Southern California TRACON
01:07AM 33.9500 -117.3667 212° Southwest 292 336 8,900 -960 Descending Southern California TRACON
01:08AM 33.8833 -117.4167 212° Southwest 280 322 8,000 -480 Descending Southern California TRACON
01:09AM 33.8333 -117.4667 220° Southwest 268 308 8,000  Level Southern California TRACON
01:09AM 33.7944 -117.4850 201° Southwest 267 307 8,000 -360 Level Los Angeles Center
01:10AM 33.7814 -117.5561 258° West 236 272 7,500 -780 Descending Los Angeles Center
01:11AM 33.7806 -117.6306 269° West 228 262 6,500 -1,140 Descending Los Angeles Center
01:12AM 33.7819 -117.6997 271° West 216 249 5,300 -1,380 Descending Los Angeles Center
01:13AM 33.7817 -117.7606 270° West 189 217 3,700 -1,440 Descending Los Angeles Center
01:14AM 33.7614 -117.8125 245° Southwest 182 209 2,400 -1,380 Descending Los Angeles Center
01:15AM 33.7258 -117.8372 210° Southwest 161 185 1,000 -1,080 Descending Los Angeles Center
01:16AM 33.6942 -117.8564 207° Southwest 144 166 300 14,220 Descending Los Angeles Center
01:17AM 33.6689 -117.8181 128° Southeast 158 182 30,000 29,160 Climbing Los Angeles Center
01:19AM 33.6757 -117.8682 270° West  Level Estimated